createdAt,value
2023-01-15T00:00:23.060Z,9.43
2023-01-15T00:02:51.191Z,9.46
2023-01-15T00:05:19.224Z,9.41
2023-01-15T00:07:47.363Z,9.47
2023-01-15T00:10:15.660Z,9.43
2023-01-15T00:12:43.723Z,9.39
2023-01-15T00:15:14.452Z,9.42
2023-01-15T00:17:42.784Z,9.36
2023-01-15T00:20:11.963Z,9.34
2023-01-15T00:22:40.707Z,9.33
2023-01-15T00:25:28.406Z,9.37
2023-01-15T00:27:56.587Z,9.33
2023-01-15T00:30:25.027Z,9.37
2023-01-15T00:32:53.091Z,9.41
2023-01-15T00:35:23.467Z,9.33
2023-01-15T00:37:51.808Z,9.35
2023-01-15T00:40:21.652Z,9.35
2023-01-15T00:42:54.407Z,9.29
2023-01-15T00:45:23.099Z,9.30
2023-01-15T00:47:51.643Z,9.32
2023-01-15T00:50:20.030Z,9.28
2023-01-15T00:52:48.239Z,9.25
2023-01-15T00:55:16.477Z,9.25
2023-01-15T00:57:44.746Z,9.24
2023-01-15T01:00:13.486Z,9.22
2023-01-15T01:02:41.750Z,9.26
2023-01-15T01:05:10.281Z,9.27
2023-01-15T01:07:38.522Z,9.26
2023-01-15T01:10:07.325Z,9.17
2023-01-15T01:12:37.436Z,9.20
2023-01-15T01:15:06.214Z,9.20
2023-01-15T01:17:34.568Z,9.19
2023-01-15T01:20:02.840Z,9.20
2023-01-15T01:22:33.516Z,9.24
2023-01-15T01:25:01.816Z,9.21
2023-01-15T01:27:30.110Z,9.14
2023-01-15T01:29:58.311Z,9.21
2023-01-15T01:32:26.634Z,9.11
2023-01-15T01:34:54.930Z,9.11
2023-01-15T01:37:23.189Z,9.11
2023-01-15T01:39:51.545Z,9.09
2023-01-15T01:42:19.958Z,9.18
2023-01-15T01:44:48.184Z,9.11
2023-01-15T01:47:23.091Z,9.10
2023-01-15T01:49:54.973Z,9.10
2023-01-15T01:52:28.052Z,9.04
2023-01-15T01:54:57.165Z,9.11
2023-01-15T01:57:25.887Z,9.07
2023-01-15T01:59:55.618Z,9.04
2023-01-15T02:02:24.311Z,9.08
2023-01-15T02:04:53.240Z,9.05
2023-01-15T02:07:21.731Z,8.97
2023-01-15T02:09:50.167Z,8.99
2023-01-15T02:12:28.086Z,8.97
2023-01-15T02:15:23.350Z,9.02
2023-01-15T02:18:06.006Z,9.02
2023-01-15T02:20:50.448Z,9.03
2023-01-15T02:23:49.950Z,9.02
2023-01-15T02:26:44.552Z,8.94
2023-01-15T02:29:20.213Z,8.95
2023-01-15T02:31:53.994Z,8.98
2023-01-15T02:34:33.531Z,8.93
2023-01-15T02:37:18.901Z,8.89
2023-01-15T02:39:49.669Z,8.96
2023-01-15T02:42:20.649Z,8.85
2023-01-15T02:44:52.316Z,8.85
2023-01-15T02:47:26.160Z,8.85
2023-01-15T02:50:00.151Z,8.89
2023-01-15T02:52:33.424Z,8.82
2023-01-15T02:55:16.658Z,8.85
2023-01-15T02:57:50.300Z,8.83
2023-01-15T03:00:21.429Z,8.81
2023-01-15T03:03:06.395Z,8.83
2023-01-15T03:05:47.562Z,8.82
2023-01-15T03:08:16.251Z,8.75
2023-01-15T03:10:50.214Z,8.78
2023-01-15T03:13:52.761Z,8.78
2023-01-15T03:16:37.215Z,8.78
2023-01-15T03:19:23.673Z,8.77
2023-01-15T03:22:06.711Z,8.77
2023-01-15T03:24:42.346Z,8.73
2023-01-15T03:27:11.046Z,8.72
2023-01-15T03:29:46.104Z,8.70
2023-01-15T03:32:15.843Z,8.73
2023-01-15T03:34:55.820Z,8.67
2023-01-15T03:37:27.562Z,8.75
2023-01-15T03:39:58.109Z,8.70
2023-01-15T03:42:49.520Z,8.81
2023-01-15T03:45:23.425Z,8.80
2023-01-15T03:48:09.055Z,8.78
2023-01-15T03:50:47.900Z,8.70
2023-01-15T03:53:24.339Z,8.73
2023-01-15T03:55:59.805Z,8.74
2023-01-15T03:58:47.702Z,8.75
2023-01-15T04:01:20.190Z,8.78
2023-01-15T04:03:50.577Z,8.68
2023-01-15T04:06:20.056Z,8.61
2023-01-15T04:08:49.215Z,8.66
2023-01-15T04:11:24.643Z,8.62
2023-01-15T04:13:54.461Z,8.59
2023-01-15T04:16:34.686Z,8.59
2023-01-15T04:19:03.148Z,8.57
2023-01-15T04:21:31.665Z,8.57
2023-01-15T04:24:02.044Z,8.57
2023-01-15T04:26:32.446Z,8.57
2023-01-15T04:29:02.827Z,8.52
2023-01-15T04:31:33.564Z,8.54
2023-01-15T04:34:04.193Z,8.52
2023-01-15T04:36:38.108Z,8.46
2023-01-15T04:39:10.009Z,8.44
2023-01-15T04:41:58.768Z,8.46
2023-01-15T04:44:29.415Z,8.47
2023-01-15T04:47:00.682Z,8.52
2023-01-15T04:49:30.280Z,8.54
2023-01-15T04:51:58.895Z,8.46
2023-01-15T04:54:27.216Z,8.48
2023-01-15T04:56:56.672Z,8.46
2023-01-15T04:59:27.220Z,8.45
2023-01-15T05:02:04.983Z,8.41
2023-01-15T05:04:35.144Z,8.46
2023-01-15T05:07:04.874Z,8.42
2023-01-15T05:09:34.040Z,8.50
2023-01-15T05:12:02.460Z,8.49
2023-01-15T05:14:30.768Z,8.52
2023-01-15T05:16:59.100Z,8.47
2023-01-15T05:19:27.468Z,8.36
2023-01-15T05:21:55.785Z,8.49
2023-01-15T05:24:25.892Z,8.42
2023-01-15T05:26:55.276Z,8.41
2023-01-15T05:29:24.047Z,8.28
2023-01-15T05:31:52.479Z,8.44
2023-01-15T05:34:21.232Z,8.44
2023-01-15T05:36:51.752Z,8.49
2023-01-15T05:39:22.140Z,8.40
2023-01-15T05:41:53.202Z,8.39
2023-01-15T05:44:25.108Z,8.36
2023-01-15T05:46:57.685Z,8.30
2023-01-15T05:49:28.383Z,8.39
2023-01-15T05:52:00.465Z,8.38
2023-01-15T05:54:33.932Z,8.48
2023-01-15T05:57:03.043Z,8.35
2023-01-15T05:59:32.571Z,8.36
2023-01-15T06:02:00.556Z,8.36
2023-01-15T06:04:27.651Z,8.36
2023-01-15T06:06:56.855Z,8.34
2023-01-15T06:09:27.891Z,8.24
2023-01-15T06:11:56.342Z,8.24
2023-01-15T06:14:23.542Z,8.21
2023-01-15T06:16:50.913Z,8.12
2023-01-15T06:19:17.935Z,8.23
2023-01-15T06:21:47.382Z,8.30
2023-01-15T06:24:16.740Z,8.18
2023-01-15T06:26:43.911Z,8.10
2023-01-15T06:29:10.949Z,8.20
2023-01-15T06:31:38.038Z,8.19
2023-01-15T06:34:05.063Z,8.18
2023-01-15T06:36:32.113Z,8.22
2023-01-15T06:38:59.203Z,8.29
2023-01-15T06:41:45.570Z,8.14
2023-01-15T06:44:35.002Z,8.15
2023-01-15T06:47:20.455Z,8.14
2023-01-15T06:49:50.222Z,8.19
2023-01-15T06:52:18.551Z,8.07
2023-01-15T06:54:45.514Z,8.01
2023-01-15T06:57:12.523Z,8.05
2023-01-15T06:59:39.533Z,8.06
2023-01-15T07:02:06.779Z,8.01
2023-01-15T07:04:33.763Z,8.11
2023-01-15T07:07:00.749Z,8.01
2023-01-15T07:09:27.835Z,8.01
2023-01-15T07:11:54.988Z,7.94
2023-01-15T07:14:25.538Z,7.90
2023-01-15T07:16:52.922Z,7.97
2023-01-15T07:19:20.698Z,7.99
2023-01-15T07:21:48.964Z,7.90
2023-01-15T07:24:16.981Z,7.94
2023-01-15T07:26:45.585Z,7.93
2023-01-15T07:29:13.462Z,7.86
2023-01-15T07:31:41.186Z,7.93
2023-01-15T07:34:08.555Z,7.87
2023-01-15T07:36:37.531Z,7.87
2023-01-15T07:39:07.269Z,7.91
2023-01-15T07:41:52.972Z,8.08
2023-01-15T07:44:38.632Z,7.81
2023-01-15T07:47:39.980Z,7.80
2023-01-15T07:50:14.913Z,7.80
2023-01-15T07:52:41.996Z,7.70
2023-01-15T07:55:10.296Z,7.69
2023-01-15T07:57:37.657Z,7.64
2023-01-15T08:00:07.940Z,7.72
2023-01-15T08:02:34.966Z,7.90
2023-01-15T08:05:02.025Z,8.03
2023-01-15T08:07:29.582Z,7.89
2023-01-15T08:09:56.828Z,7.79
2023-01-15T08:12:44.029Z,7.73
2023-01-15T08:15:14.781Z,7.88
2023-01-15T08:17:47.558Z,7.65
2023-01-15T08:20:18.307Z,7.67
2023-01-15T08:22:46.517Z,7.72
2023-01-15T08:25:16.984Z,7.84
2023-01-15T08:27:45.402Z,7.68
2023-01-15T08:30:16.804Z,7.98
2023-01-15T08:32:45.267Z,7.93
2023-01-15T08:35:14.949Z,7.68
2023-01-15T08:37:45.780Z,7.79
2023-01-15T08:40:15.846Z,7.73
2023-01-15T08:42:46.363Z,7.70
2023-01-15T08:45:15.673Z,7.84
2023-01-15T08:47:42.990Z,8.00
2023-01-15T08:50:11.010Z,8.03
2023-01-15T08:52:38.963Z,8.06
2023-01-15T08:55:07.443Z,7.94
2023-01-15T08:57:35.187Z,8.01
2023-01-15T09:00:03.028Z,7.98
2023-01-15T09:02:30.438Z,8.30
2023-01-15T09:04:57.906Z,8.04
2023-01-15T09:07:25.270Z,8.21
2023-01-15T09:09:52.648Z,8.16
2023-01-15T09:12:20.047Z,8.51
2023-01-15T09:14:57.617Z,8.32
2023-01-15T09:17:31.340Z,8.46
2023-01-15T09:19:59.088Z,8.41
2023-01-15T09:22:30.077Z,8.42
2023-01-15T09:24:57.524Z,8.44
2023-01-15T09:27:25.120Z,8.54
2023-01-15T09:29:52.778Z,8.44
2023-01-15T09:32:20.111Z,8.47
2023-01-15T09:34:47.488Z,8.42
2023-01-15T09:37:14.810Z,8.49
2023-01-15T09:39:42.081Z,8.54
2023-01-15T09:42:58.158Z,8.60
2023-01-15T09:45:47.383Z,8.69
2023-01-15T09:48:39.097Z,8.60
2023-01-15T09:51:32.554Z,8.75
2023-01-15T09:54:06.988Z,8.71
2023-01-15T09:56:37.411Z,8.75
2023-01-15T09:59:19.662Z,8.88
2023-01-15T10:01:48.566Z,8.73
2023-01-15T10:04:18.872Z,8.76
2023-01-15T10:06:55.215Z,8.72
2023-01-15T10:09:31.452Z,8.72
2023-01-15T10:12:35.355Z,9.04
2023-01-15T10:15:14.142Z,8.76
2023-01-15T10:17:48.739Z,9.15
2023-01-15T10:20:39.521Z,9.08
2023-01-15T10:23:37.595Z,9.11
2023-01-15T10:26:44.674Z,9.10
2023-01-15T10:29:41.006Z,9.28
2023-01-15T10:32:22.791Z,9.09
2023-01-15T10:35:08.025Z,9.15
2023-01-15T10:37:45.732Z,9.07
2023-01-15T10:40:23.829Z,9.17
2023-01-15T10:43:09.867Z,9.16
2023-01-15T10:45:42.649Z,9.24
2023-01-15T10:48:24.580Z,9.20
2023-01-15T10:50:52.562Z,9.15
2023-01-15T10:53:37.923Z,9.31
2023-01-15T10:56:41.362Z,9.66
2023-01-15T10:59:30.251Z,9.26
2023-01-15T11:02:02.554Z,9.55
2023-01-15T11:04:33.130Z,9.31
2023-01-15T11:07:01.214Z,9.48
2023-01-15T11:09:32.422Z,9.45
2023-01-15T11:12:23.112Z,9.45
2023-01-15T11:15:08.835Z,9.76
2023-01-15T11:18:03.121Z,9.40
2023-01-15T11:20:34.764Z,9.40
2023-01-15T11:23:17.996Z,9.41
2023-01-15T11:25:57.499Z,9.45
2023-01-15T11:28:40.078Z,9.44
2023-01-15T11:31:08.441Z,9.31
2023-01-15T11:33:36.443Z,9.42
2023-01-15T11:36:19.137Z,9.52
2023-01-15T11:38:50.942Z,9.41
2023-01-15T11:41:24.144Z,9.39
2023-01-15T11:44:15.299Z,9.39
2023-01-15T11:47:03.863Z,9.62
2023-01-15T11:49:49.450Z,9.49
2023-01-15T11:52:25.280Z,9.21
2023-01-15T11:54:55.084Z,9.47
2023-01-15T11:57:41.871Z,9.32
2023-01-15T12:00:28.671Z,9.33
2023-01-15T12:03:05.816Z,9.41
2023-01-15T12:05:36.391Z,9.45
2023-01-15T12:08:14.416Z,9.53
2023-01-15T12:11:25.155Z,9.63
2023-01-15T12:13:56.308Z,9.44
2023-01-15T12:16:33.129Z,9.77
2023-01-15T12:19:07.442Z,9.77
2023-01-15T12:22:12.617Z,9.56
2023-01-15T12:24:56.438Z,9.52
2023-01-15T12:27:26.607Z,9.63
2023-01-15T12:30:19.690Z,9.62
2023-01-15T12:33:13.305Z,9.78
2023-01-15T12:35:49.104Z,9.67
2023-01-15T12:38:31.710Z,9.57
2023-01-15T12:41:09.031Z,9.82
2023-01-15T12:43:54.969Z,9.73
2023-01-15T12:46:31.029Z,9.65
2023-01-15T12:49:19.695Z,9.63
2023-01-15T12:52:02.037Z,9.74
2023-01-15T12:54:35.843Z,9.74
2023-01-15T12:57:35.457Z,9.72
2023-01-15T13:00:45.304Z,9.67
2023-01-15T13:03:15.394Z,9.80
2023-01-15T13:05:48.343Z,9.87
2023-01-15T13:08:26.274Z,9.77
2023-01-15T13:10:53.562Z,9.87
2023-01-15T13:13:33.021Z,9.91
2023-01-15T13:16:03.553Z,9.79
2023-01-15T13:18:33.954Z,9.86
2023-01-15T13:21:12.275Z,9.97
2023-01-15T13:24:08.145Z,9.84
2023-01-15T13:26:35.462Z,9.89
2023-01-15T13:29:16.001Z,9.86
2023-01-15T13:31:50.600Z,9.90
2023-01-15T13:34:38.772Z,9.96
2023-01-15T13:37:20.470Z,9.91
2023-01-15T13:39:49.794Z,10.14
2023-01-15T13:42:31.867Z,10.03
2023-01-15T13:45:40.464Z,9.95
2023-01-15T13:48:18.052Z,9.93
2023-01-15T13:51:00.351Z,10.15
2023-01-15T13:53:33.606Z,10.12
2023-01-15T13:56:15.127Z,10.23
2023-01-15T13:59:00.411Z,9.99
2023-01-15T14:01:30.657Z,10.06
2023-01-15T14:04:09.729Z,9.95
2023-01-15T14:06:49.953Z,9.91
2023-01-15T14:09:23.255Z,9.91
2023-01-15T14:12:16.730Z,9.88
2023-01-15T14:14:59.831Z,10.15
2023-01-15T14:17:57.758Z,9.97
2023-01-15T14:20:38.995Z,10.09
2023-01-15T14:23:33.932Z,10.01
2023-01-15T14:26:19.011Z,10.06
2023-01-15T14:29:27.925Z,10.03
2023-01-15T14:32:05.184Z,9.96
2023-01-15T14:34:35.515Z,10.13
2023-01-15T14:37:07.925Z,9.93
2023-01-15T14:39:46.465Z,9.96
2023-01-15T14:42:42.218Z,9.75
2023-01-15T14:45:12.361Z,9.84
2023-01-15T14:47:52.276Z,9.99
2023-01-15T14:50:39.396Z,9.79
2023-01-15T14:53:23.532Z,9.76
2023-01-15T14:55:56.240Z,9.86
2023-01-15T14:58:26.370Z,9.71
2023-01-15T15:00:58.270Z,9.90
2023-01-15T15:03:36.995Z,9.71
2023-01-15T15:06:07.029Z,9.68
2023-01-15T15:08:35.514Z,9.71
2023-01-15T15:11:24.758Z,9.69
2023-01-15T15:13:56.489Z,9.73
2023-01-15T15:16:30.986Z,9.64
2023-01-15T15:19:12.574Z,9.53
2023-01-15T15:21:43.341Z,9.55
2023-01-15T15:24:21.157Z,9.54
2023-01-15T15:26:48.670Z,9.59
2023-01-15T15:29:18.926Z,9.52
2023-01-15T15:31:56.020Z,9.63
2023-01-15T15:34:40.912Z,9.56
2023-01-15T15:37:28.835Z,9.42
2023-01-15T15:40:17.256Z,9.65
2023-01-15T15:43:12.864Z,9.52
2023-01-15T15:46:09.202Z,9.43
2023-01-15T15:48:42.830Z,9.44
2023-01-15T15:51:38.225Z,9.40
2023-01-15T15:54:29.728Z,9.33
2023-01-15T15:57:14.667Z,9.47
2023-01-15T15:59:51.847Z,9.33
2023-01-15T16:02:20.616Z,9.15
2023-01-15T16:04:53.620Z,9.42
2023-01-15T16:07:34.028Z,9.16
2023-01-15T16:10:32.282Z,9.11
2023-01-15T16:13:11.593Z,9.18
2023-01-15T16:15:41.949Z,9.04
2023-01-15T16:18:26.509Z,9.25
2023-01-15T16:20:54.226Z,9.22
2023-01-15T16:23:28.083Z,9.12
2023-01-15T16:26:33.014Z,9.12
2023-01-15T16:29:04.440Z,9.21
2023-01-15T16:31:37.125Z,9.16
2023-01-15T16:34:05.563Z,9.16
2023-01-15T16:36:42.574Z,9.35
2023-01-15T16:39:23.696Z,9.16
2023-01-15T16:41:57.619Z,9.15
2023-01-15T16:44:49.528Z,9.08
2023-01-15T16:47:32.991Z,8.84
2023-01-15T16:50:24.583Z,8.88
2023-01-15T16:52:54.684Z,8.90
2023-01-15T16:55:45.519Z,8.91
2023-01-15T16:58:12.625Z,8.96
2023-01-15T17:00:41.719Z,8.85
2023-01-15T17:03:17.697Z,8.86
2023-01-15T17:05:47.332Z,8.72
2023-01-15T17:08:30.585Z,8.63
2023-01-15T17:11:01.866Z,8.72
2023-01-15T17:13:40.387Z,8.93
2023-01-15T17:16:19.707Z,8.60
2023-01-15T17:18:49.209Z,8.73
2023-01-15T17:21:27.393Z,8.75
2023-01-15T17:23:55.901Z,8.59
2023-01-15T17:26:27.525Z,8.61
2023-01-15T17:28:54.524Z,8.61
2023-01-15T17:31:30.942Z,8.46
2023-01-15T17:34:03.222Z,8.66
2023-01-15T17:36:31.186Z,8.44
2023-01-15T17:38:58.289Z,8.40
2023-01-15T17:41:26.333Z,8.36
2023-01-15T17:43:53.334Z,8.35
2023-01-15T17:46:20.464Z,8.53
2023-01-15T17:48:47.584Z,8.52
2023-01-15T17:51:16.307Z,8.35
2023-01-15T17:53:43.394Z,8.45
2023-01-15T17:56:32.707Z,8.31
2023-01-15T17:59:18.572Z,8.22
2023-01-15T18:02:06.630Z,8.32
2023-01-15T18:05:06.407Z,8.45
2023-01-15T18:07:39.645Z,8.39
2023-01-15T18:10:09.235Z,8.41
2023-01-15T18:12:36.300Z,8.35
2023-01-15T18:15:03.459Z,8.47
2023-01-15T18:17:31.774Z,8.34
2023-01-15T18:19:58.787Z,8.49
2023-01-15T18:22:26.893Z,8.53
2023-01-15T18:24:53.948Z,8.34
2023-01-15T18:27:20.965Z,8.29
2023-01-15T18:29:47.992Z,8.22
2023-01-15T18:32:15.014Z,8.19
2023-01-15T18:34:42.096Z,8.22
2023-01-15T18:37:09.161Z,8.30
2023-01-15T18:39:37.256Z,8.18
2023-01-15T18:42:05.250Z,8.11
2023-01-15T18:44:50.825Z,7.98
2023-01-15T18:47:17.885Z,8.06
2023-01-15T18:49:46.820Z,8.05
2023-01-15T18:52:34.420Z,7.93
2023-01-15T18:55:02.096Z,7.99
2023-01-15T18:57:31.855Z,7.98
2023-01-15T18:59:59.052Z,8.02
2023-01-15T19:02:26.197Z,7.96
2023-01-15T19:04:53.191Z,7.96
2023-01-15T19:07:20.232Z,7.97
2023-01-15T19:09:47.236Z,7.97
2023-01-15T19:12:15.261Z,7.99
2023-01-15T19:15:00.640Z,8.01
2023-01-15T19:17:46.790Z,7.94
2023-01-15T19:20:17.635Z,7.97
2023-01-15T19:22:59.963Z,7.93
2023-01-15T19:25:37.235Z,7.90
2023-01-15T19:28:05.443Z,7.91
2023-01-15T19:30:34.238Z,7.93
2023-01-15T19:33:01.315Z,7.90
2023-01-15T19:35:28.425Z,7.94
2023-01-15T19:37:56.056Z,7.93
2023-01-15T19:40:24.097Z,7.90
2023-01-15T19:43:10.547Z,7.90
2023-01-15T19:46:03.696Z,7.89
2023-01-15T19:48:49.730Z,7.89
2023-01-15T19:51:16.711Z,7.86
2023-01-15T19:53:43.636Z,7.80
2023-01-15T19:56:10.569Z,7.82
2023-01-15T19:58:37.559Z,7.81
2023-01-15T20:01:04.935Z,7.80
2023-01-15T20:03:32.059Z,7.74
2023-01-15T20:05:59.079Z,7.77
2023-01-15T20:08:26.407Z,7.75
2023-01-15T20:10:53.423Z,7.73
2023-01-15T20:13:42.216Z,7.71
2023-01-15T20:16:17.643Z,7.60
2023-01-15T20:18:47.981Z,7.71
2023-01-15T20:21:16.262Z,7.65
2023-01-15T20:23:44.127Z,7.70
2023-01-15T20:26:14.191Z,7.68
2023-01-15T20:28:42.697Z,7.87
2023-01-15T20:31:19.487Z,7.83
2023-01-15T20:33:47.164Z,7.96
2023-01-15T20:36:14.527Z,8.05
2023-01-15T20:38:41.508Z,7.87
2023-01-15T20:41:29.289Z,7.89
2023-01-15T20:44:15.108Z,7.91
2023-01-15T20:46:42.087Z,7.90
2023-01-15T20:49:32.519Z,7.96
2023-01-15T20:52:01.344Z,7.84
2023-01-15T20:54:28.819Z,7.83
2023-01-15T20:56:55.766Z,7.90
2023-01-15T20:59:22.743Z,7.92
2023-01-15T21:01:49.760Z,7.97
2023-01-15T21:04:16.918Z,7.85
2023-01-15T21:06:44.129Z,7.88
2023-01-15T21:09:11.184Z,7.93
2023-01-15T21:11:38.141Z,8.13
2023-01-15T21:14:05.239Z,8.20
2023-01-15T21:16:32.284Z,8.22
2023-01-15T21:19:01.274Z,8.01
2023-01-15T21:21:28.340Z,7.97
2023-01-15T21:23:55.424Z,8.02
2023-01-15T21:26:24.466Z,7.96
2023-01-15T21:28:55.930Z,7.96
2023-01-15T21:31:23.337Z,8.10
2023-01-15T21:33:54.249Z,8.04
2023-01-15T21:36:21.308Z,8.01
2023-01-15T21:38:54.913Z,7.99
2023-01-15T21:41:41.394Z,7.90
2023-01-15T21:44:34.576Z,7.94
2023-01-15T21:47:08.664Z,7.91
2023-01-15T21:49:35.664Z,7.94
2023-01-15T21:52:06.328Z,7.91
2023-01-15T21:54:33.344Z,7.98
2023-01-15T21:57:00.860Z,7.97
2023-01-15T21:59:28.302Z,7.97
2023-01-15T22:01:59.407Z,7.91
2023-01-15T22:04:28.931Z,7.98
2023-01-15T22:06:56.545Z,7.94
2023-01-15T22:09:23.697Z,8.02
2023-01-15T22:11:52.507Z,7.91
2023-01-15T22:14:28.564Z,7.88
2023-01-15T22:16:59.926Z,8.04
2023-01-15T22:19:29.639Z,7.93
2023-01-15T22:22:04.666Z,7.79
2023-01-15T22:24:34.124Z,7.97
2023-01-15T22:27:03.360Z,7.92
2023-01-15T22:29:34.394Z,7.88
2023-01-15T22:32:02.140Z,7.88
2023-01-15T22:34:29.284Z,7.72
2023-01-15T22:36:56.455Z,7.79
2023-01-15T22:39:25.226Z,7.73
2023-01-15T22:42:11.478Z,7.70
2023-01-15T22:44:38.692Z,7.61
2023-01-15T22:47:06.489Z,7.70
2023-01-15T22:49:33.440Z,7.63
2023-01-15T22:52:00.585Z,7.70
2023-01-15T22:54:27.552Z,7.60
2023-01-15T22:56:54.556Z,7.66
2023-01-15T22:59:21.531Z,7.69
2023-01-15T23:01:48.622Z,7.77
2023-01-15T23:04:19.860Z,7.72
2023-01-15T23:06:47.467Z,7.63
2023-01-15T23:09:14.474Z,7.66
2023-01-15T23:11:41.830Z,7.70
2023-01-15T23:14:11.539Z,7.68
2023-01-15T23:16:38.815Z,7.75
2023-01-15T23:19:06.275Z,7.66
2023-01-15T23:21:33.995Z,7.66
2023-01-15T23:24:02.385Z,7.76
2023-01-15T23:26:33.311Z,7.65
2023-01-15T23:29:00.939Z,7.77
2023-01-15T23:31:28.236Z,7.60
2023-01-15T23:33:55.779Z,7.55
2023-01-15T23:36:23.672Z,7.56
2023-01-15T23:38:50.689Z,7.54
2023-01-15T23:41:40.944Z,7.45
2023-01-15T23:44:36.418Z,7.52
2023-01-15T23:47:03.831Z,7.50
2023-01-15T23:49:30.827Z,7.55
2023-01-15T23:51:58.027Z,7.50
2023-01-15T23:54:30.827Z,7.68
2023-01-15T23:57:00.001Z,7.47
2023-01-15T23:59:28.080Z,7.46
